H92 weather

Hominy Municipal Airport
Hominy, Oklahoma, United States

Public forecast

Using degrees Fahrenheit for public forecast. Weather courtesy of forecast.io.

METAR (pilot weather report)

Closest report is William R. Pogue Municipal Airport, 19.7 nm (36.5 km) SE. Retrieved 2019/04/25 20:55 UTC (45 minutes ago):

KOWP 252055Z AUTO 30010G19KT 280V340 10SM 28/08 A2983 RMK AO2 6//// T02820075 PWINO

TAF (pilot weather forecast)

Closest forecast is Bartlesville Municipal Airport, 26.4 nm (48.9 km) NE. Retrieved 2019/04/25 18:27 UTC (3 hours ago):

TAF KBVO 251724Z 2518/2618 35010KT P6SM SCT045 FM260100 36004KT P6SM SKC